Terminal Aerodrome Forecast
Issued by NWS Wilmington, NC

Home | Current Version | Previous Version | Text Only | Print | Product List | Glossary On
Versions: 1 2 3 4 5 6 7 8 9 10 11 12 13 14 15
000
FTUS42 KILM 300936 AAA
TAFMYR
TAF AMD
KMYR 300936Z 3010/3106 14010KT P6SM SCT020 SCT080
      AMD LTD TO CLD VIS AND WIND TIL 301100=

USA.gov is the U.S. government's official web portal to all federal, state and local government web resources and services.